Terminal Aerodrome Forecast
Issued by NWS Greer, SC

Home | Current Version | Previous Version | Text Only | Print | Product List | Glossary On
Versions: 1 2 3 4 5 6 7 8 9 10 11 12 13 14 15 16 17
445
FTUS42 KGSP 240145 AAA
TAFGSP
TAF AMD
KGSP 240145Z 2402/2424 13004KT P6SM OVC050
     FM241100 12003KT P6SM SCT020
      TEMPO 2411/2415 BKN015
     FM241600 17004KT P6SM FEW025 SCT045
     FM241900 19005KT P6SM SCT050=

USA.gov is the U.S. government's official web portal to all federal, state and local government web resources and services.